Time;durP1;ratioP1;P1;durP2;ratioP2;P2;SDS_P1;SDS_P2;PMS_P1;PMS_P2;Temp;Humidity;BMP_temperature;BMP_pressure;BME280_temperature;BME280_humidity;BME280_pressure;Samples;Min_cycle;Max_cycle;Signal;HPM_P1;HPM_P2
2022/03/17 00:00:15;;;;;;;47.08;25.88;;;4.40;99.90;;;;;;4972469;28;20034;-89
2022/03/17 00:02:41;;;;;;;42.35;24.35;;;4.50;99.90;;;;;;4971924;28;20041;-89
2022/03/17 00:05:09;;;;;;;49.47;26.70;;;4.50;99.90;;;;;;4970000;28;20113;-90
2022/03/17 00:07:39;;;;;;;46.50;27.73;;;4.50;99.90;;;;;;4970020;28;20221;-88
2022/03/17 00:10:07;;;;;;;47.22;27.27;;;4.60;99.90;;;;;;4970708;28;20031;-88
2022/03/17 00:12:33;;;;;;;45.75;27.52;;;4.60;99.90;;;;;;4970835;28;20093;-90
2022/03/17 00:14:59;;;;;;;46.00;26.15;;;4.60;99.90;;;;;;4971642;28;20037;-87
2022/03/17 00:17:26;;;;;;;48.95;27.45;;;4.60;99.90;;;;;;4965909;28;20162;-88
2022/03/17 00:19:52;;;;;;;50.80;26.42;;;4.60;99.90;;;;;;4968306;28;20558;-90
2022/03/17 00:22:18;;;;;;;46.15;28.23;;;4.60;99.90;;;;;;4966842;28;20027;-89
2022/03/17 00:24:44;;;;;;;50.70;27.13;;;4.50;99.90;;;;;;4972383;28;20029;-88
2022/03/17 00:27:10;;;;;;;48.10;27.23;;;4.50;99.90;;;;;;4969668;28;20466;-90
2022/03/17 00:29:37;;;;;;;48.53;27.75;;;4.40;99.90;;;;;;4969056;28;20027;-88
2022/03/17 00:32:03;;;;;;;45.72;25.63;;;4.30;99.90;;;;;;4971500;28;20073;-88
2022/03/17 00:34:29;;;;;;;51.15;27.98;;;4.30;99.90;;;;;;4971609;28;20081;-90
2022/03/17 00:36:55;;;;;;;50.05;29.10;;;4.40;99.90;;;;;;4971922;28;20027;-91
2022/03/17 00:39:21;;;;;;;48.05;25.02;;;4.40;99.90;;;;;;4971801;28;20034;-89
2022/03/17 00:41:47;;;;;;;49.67;29.80;;;4.40;99.90;;;;;;4970137;28;20085;-89
2022/03/17 00:44:12;;;;;;;44.35;26.73;;;4.40;99.90;;;;;;4971559;28;20088;-89
2022/03/17 00:46:39;;;;;;;53.25;30.65;;;4.40;99.90;;;;;;4970354;28;20394;-88
2022/03/17 00:49:05;;;;;;;55.35;29.25;;;4.40;99.90;;;;;;4971155;28;20105;-89
2022/03/17 00:51:31;;;;;;;46.85;26.98;;;4.40;99.90;;;;;;4971477;28;20414;-89
2022/03/17 00:53:56;;;;;;;52.55;28.08;;;4.40;99.90;;;;;;4969561;28;20462;-90
2022/03/17 00:56:23;;;;;;;49.55;27.40;;;4.30;99.90;;;;;;4970176;28;20386;-88
2022/03/17 00:58:48;;;;;;;50.72;29.08;;;4.30;99.90;;;;;;4968589;28;20034;-88
2022/03/17 01:01:17;;;;;;;50.78;28.27;;;4.40;99.90;;;;;;4969760;28;20039;-88
2022/03/17 01:03:44;;;;;;;48.72;26.55;;;4.30;99.90;;;;;;4970301;28;20457;-91
2022/03/17 01:06:10;;;;;;;51.53;28.38;;;4.40;99.90;;;;;;4968485;28;20030;-88
2022/03/17 01:08:36;;;;;;;52.90;29.90;;;4.30;99.90;;;;;;4970116;28;20446;-90
2022/03/17 01:11:03;;;;;;;48.88;29.08;;;4.40;99.90;;;;;;4953136;28;20042;-88
2022/03/17 01:13:29;;;;;;;49.53;28.23;;;4.40;99.90;;;;;;4966211;28;20031;-88
2022/03/17 01:15:55;;;;;;;52.35;29.40;;;4.30;99.90;;;;;;4970652;28;20374;-91
2022/03/17 01:18:21;;;;;;;49.22;28.80;;;4.30;99.90;;;;;;4967998;28;20106;-88
2022/03/17 01:20:48;;;;;;;54.65;28.15;;;4.30;99.90;;;;;;4970839;28;20058;-89
2022/03/17 01:23:14;;;;;;;51.00;30.75;;;4.30;99.90;;;;;;4971336;28;20038;-89
2022/03/17 01:25:39;;;;;;;51.67;31.20;;;4.30;99.90;;;;;;4971127;28;20045;-88
2022/03/17 01:28:05;;;;;;;53.80;29.92;;;4.40;99.90;;;;;;4980586;28;20039;-89
2022/03/17 01:30:31;;;;;;;56.55;29.80;;;4.20;99.90;;;;;;4969752;28;20035;-87
2022/03/17 01:32:57;;;;;;;50.15;27.55;;;4.20;99.90;;;;;;4971047;28;20099;-88
2022/03/17 01:35:23;;;;;;;53.70;30.23;;;4.20;99.90;;;;;;4970826;28;20792;-87
2022/03/17 01:37:48;;;;;;;51.30;28.35;;;4.10;99.90;;;;;;4971002;28;20501;-88
2022/03/17 01:40:15;;;;;;;50.67;30.83;;;4.00;99.90;;;;;;4983947;28;20035;-87
2022/03/17 01:42:41;;;;;;;47.97;28.08;;;4.10;99.90;;;;;;4969353;28;20073;-88
2022/03/17 01:45:08;;;;;;;55.05;30.25;;;4.10;99.90;;;;;;4970952;28;20039;-88
2022/03/17 01:47:36;;;;;;;55.65;31.30;;;4.10;99.90;;;;;;4971068;28;20035;-90
2022/03/17 01:50:09;;;;;;;54.85;31.00;;;4.10;99.90;;;;;;4968878;28;20512;-88
2022/03/17 01:52:35;;;;;;;52.17;30.15;;;4.10;99.90;;;;;;4970898;28;20034;-87
2022/03/17 01:55:03;;;;;;;54.85;30.25;;;4.10;99.90;;;;;;4970616;28;20081;-89
2022/03/17 01:57:28;;;;;;;55.53;28.88;;;4.10;99.90;;;;;;4969512;28;20023;-89
2022/03/17 01:59:54;;;;;;;56.80;32.35;;;4.00;99.90;;;;;;4968742;28;20462;-89
2022/03/17 02:02:20;;;;;;;55.40;31.33;;;4.00;99.90;;;;;;4970479;28;20031;-88
2022/03/17 02:04:49;;;;;;;54.45;31.42;;;3.90;99.90;;;;;;4968901;28;20541;-89
2022/03/17 02:07:16;;;;;;;52.63;29.60;;;3.90;99.90;;;;;;4969675;28;20031;-89
2022/03/17 02:09:43;;;;;;;59.35;30.85;;;3.90;99.90;;;;;;4969048;28;20027;-87
2022/03/17 02:14:56;;;;;;;55.03;31.63;;;3.90;99.90;;;;;;4966854;28;20561;-90
2022/03/17 02:17:22;;;;;;;59.38;30.10;;;4.00;99.90;;;;;;4964850;28;20434;-88
2022/03/17 02:19:49;;;;;;;56.50;31.10;;;3.90;99.90;;;;;;4971556;28;20030;-90
2022/03/17 02:22:18;;;;;;;52.40;30.55;;;3.90;99.90;;;;;;4976568;28;20030;-91
2022/03/17 02:27:30;;;;;;;59.20;32.25;;;4.00;99.90;;;;;;4975078;28;20038;-90
2022/03/17 02:29:56;;;;;;;54.00;30.92;;;3.90;99.90;;;;;;4976564;28;20245;-90
2022/03/17 02:32:22;;;;;;;60.30;33.35;;;3.90;99.90;;;;;;4976300;28;20039;-91
2022/03/17 02:34:48;;;;;;;59.72;33.55;;;3.80;99.90;;;;;;4976502;28;20034;-89
2022/03/17 02:37:15;;;;;;;58.00;31.05;;;3.80;99.90;;;;;;4976347;28;20046;-88
2022/03/17 02:39:42;;;;;;;56.90;32.03;;;3.90;99.90;;;;;;4974911;28;20118;-90
2022/03/17 02:42:10;;;;;;;58.88;35.00;;;3.90;99.90;;;;;;4991638;28;20027;-88
2022/03/17 02:44:36;;;;;;;59.10;31.52;;;3.90;99.90;;;;;;4976628;28;20038;-90
2022/03/17 02:47:03;;;;;;;54.05;28.35;;;4.00;99.90;;;;;;4976787;28;20109;-90
2022/03/17 02:49:29;;;;;;;58.95;32.83;;;4.00;99.90;;;;;;4975275;28;20022;-89
2022/03/17 02:51:56;;;;;;;58.13;33.33;;;4.00;99.90;;;;;;4976403;28;20244;-90
2022/03/17 02:54:22;;;;;;;54.35;31.02;;;4.00;99.90;;;;;;4976896;28;20030;-89
2022/03/17 02:56:47;;;;;;;61.28;31.63;;;4.00;99.90;;;;;;4974021;28;20110;-88
2022/03/17 02:59:13;;;;;;;60.92;31.95;;;4.00;99.90;;;;;;4974208;28;20522;-89
2022/03/17 03:01:39;;;;;;;57.03;28.17;;;4.00;99.90;;;;;;4975213;28;20034;-88
2022/03/17 03:04:05;;;;;;;56.00;28.52;;;3.90;99.90;;;;;;4975799;28;20047;-88
2022/03/17 03:06:31;;;;;;;58.83;33.17;;;3.90;99.90;;;;;;4976657;28;20090;-90
2022/03/17 03:08:59;;;;;;;57.03;31.27;;;3.80;99.90;;;;;;4974795;28;20069;-90
2022/03/17 03:11:25;;;;;;;62.97;35.28;;;3.80;99.90;;;;;;4974010;28;20027;-89
2022/03/17 03:13:50;;;;;;;60.10;32.90;;;3.90;99.90;;;;;;4976356;28;20065;-89
2022/03/17 03:16:16;;;;;;;58.70;29.73;;;3.90;99.90;;;;;;4976187;28;20063;-88
2022/03/17 03:18:42;;;;;;;59.47;31.17;;;3.90;99.90;;;;;;4976473;28;20071;-89
2022/03/17 03:21:07;;;;;;;61.85;30.55;;;3.90;99.90;;;;;;4975854;28;20031;-90
2022/03/17 03:23:34;;;;;;;56.50;30.00;;;4.00;99.90;;;;;;4974195;28;20095;-88
2022/03/17 03:26:00;;;;;;;60.25;32.15;;;3.90;99.90;;;;;;4975859;28;20421;-89
2022/03/17 03:28:25;;;;;;;54.17;30.55;;;3.80;99.90;;;;;;4976232;28;20109;-88
2022/03/17 03:30:53;;;;;;;56.28;30.40;;;3.70;99.90;;;;;;4971540;28;20491;-89
2022/03/17 03:33:18;;;;;;;54.92;28.65;;;3.70;99.90;;;;;;4973279;28;20027;-89
2022/03/17 03:38:28;;;;;;;54.28;27.52;;;3.80;99.90;;;;;;4973480;28;20038;-91
2022/03/17 03:40:53;;;;;;;56.17;27.38;;;3.90;99.90;;;;;;4964733;28;20027;-89
2022/03/17 03:43:19;;;;;;;56.90;29.88;;;3.90;99.90;;;;;;4965755;28;20391;-90
2022/03/17 03:45:45;;;;;;;57.22;33.80;;;3.80;99.90;;;;;;4973218;28;20403;-89
2022/03/17 03:48:11;;;;;;;62.55;35.00;;;3.70;99.90;;;;;;4972535;28;20193;-89
2022/03/17 03:50:37;;;;;;;53.72;32.03;;;3.70;99.90;;;;;;4971867;28;20034;-89
2022/03/17 03:53:03;;;;;;;55.65;29.50;;;3.70;99.90;;;;;;4982782;28;20054;-88
2022/03/17 03:55:29;;;;;;;58.67;32.22;;;3.70;99.90;;;;;;4968139;28;20493;-90
2022/03/17 03:57:55;;;;;;;60.70;30.65;;;3.70;99.90;;;;;;4971753;28;20030;-88
2022/03/17 04:02:53;;;;;;;59.30;30.38;;;3.70;99.90;;;;;;4969820;28;20031;-89
2022/03/17 04:05:25;;;;;;;55.00;30.35;;;3.80;99.90;;;;;;4970660;28;20467;-90
2022/03/17 04:07:51;;;;;;;66.10;34.38;;;3.80;99.90;;;;;;4972110;28;20686;-89
2022/03/17 04:10:17;;;;;;;57.42;30.88;;;3.70;99.90;;;;;;4964254;28;20031;-88
2022/03/17 04:12:42;;;;;;;61.10;31.85;;;3.70;99.90;;;;;;4970911;28;20050;-89
2022/03/17 04:15:08;;;;;;;59.90;30.08;;;3.60;99.90;;;;;;4971689;28;20027;-89
2022/03/17 04:17:35;;;;;;;55.20;30.67;;;3.70;99.90;;;;;;4968620;28;20019;-90
2022/03/17 04:20:01;;;;;;;58.58;30.60;;;3.80;99.90;;;;;;4971320;28;20034;-90
2022/03/17 04:22:27;;;;;;;64.25;31.95;;;3.80;99.90;;;;;;4972280;28;20069;-89
2022/03/17 04:24:53;;;;;;;55.10;30.40;;;3.80;99.90;;;;;;4971125;28;20034;-88
2022/03/17 04:27:19;;;;;;;60.40;32.47;;;3.80;99.90;;;;;;4972203;28;20046;-88
2022/03/17 04:29:44;;;;;;;62.55;32.72;;;3.80;99.90;;;;;;4970367;28;20031;-89
2022/03/17 04:32:10;;;;;;;58.67;33.42;;;3.60;99.90;;;;;;4986161;28;20465;-89
2022/03/17 04:34:36;;;;;;;58.03;28.00;;;3.60;99.90;;;;;;4954345;28;20482;-90
2022/03/17 04:37:02;;;;;;;54.33;30.17;;;3.70;99.90;;;;;;4971964;28;20065;-89
2022/03/17 04:39:28;;;;;;;56.17;29.17;;;3.70;99.90;;;;;;4970541;28;20466;-89
2022/03/17 04:41:53;;;;;;;58.80;29.80;;;3.80;99.90;;;;;;4982989;28;20034;-89
2022/03/17 04:44:19;;;;;;;57.08;31.73;;;3.80;99.90;;;;;;4970056;28;20117;-88
2022/03/17 04:46:46;;;;;;;54.28;30.20;;;3.80;99.90;;;;;;4971941;28;20038;-88
2022/03/17 04:49:12;;;;;;;51.78;29.20;;;3.80;99.90;;;;;;4971812;28;20031;-89
2022/03/17 04:51:38;;;;;;;58.00;29.55;;;3.80;99.90;;;;;;4970733;28;20034;-88
2022/03/17 04:54:04;;;;;;;58.78;30.83;;;3.90;99.90;;;;;;4971649;28;20054;-88
2022/03/17 04:56:30;;;;;;;61.72;34.22;;;3.90;99.90;;;;;;4971733;28;20034;-90
2022/03/17 04:58:56;;;;;;;58.65;30.88;;;3.80;99.90;;;;;;4971841;28;20037;-88
2022/03/17 05:01:21;;;;;;;55.33;29.58;;;3.90;99.90;;;;;;4970791;28;20039;-88
2022/03/17 05:03:47;;;;;;;56.08;28.92;;;3.80;99.90;;;;;;4970022;28;20047;-89
2022/03/17 05:06:14;;;;;;;59.47;30.08;;;3.70;99.90;;;;;;4971771;28;20337;-89
2022/03/17 05:08:41;;;;;;;56.50;30.05;;;3.70;99.90;;;;;;4971914;28;20035;-89
2022/03/17 05:11:08;;;;;;;52.22;29.70;;;3.70;99.90;;;;;;4971159;28;20505;-89
2022/03/17 05:13:34;;;;;;;56.83;31.33;;;3.80;99.90;;;;;;4970679;28;20045;-88
2022/03/17 05:15:59;;;;;;;56.58;30.08;;;3.90;99.90;;;;;;4969787;28;20022;-88
2022/03/17 05:18:26;;;;;;;56.60;31.92;;;3.90;99.90;;;;;;4971098;28;20229;-88
2022/03/17 05:20:51;;;;;;;54.22;30.40;;;3.90;99.90;;;;;;4970858;28;20027;-88
2022/03/17 05:23:19;;;;;;;58.00;31.90;;;4.00;99.90;;;;;;4970904;28;20093;-87
2022/03/17 05:25:47;;;;;;;51.70;28.95;;;4.10;99.90;;;;;;4970668;28;20105;-91
2022/03/17 05:28:13;;;;;;;57.67;33.00;;;4.00;99.90;;;;;;4970553;28;20035;-90
2022/03/17 05:30:40;;;;;;;55.90;29.40;;;3.90;99.90;;;;;;4970634;28;20380;-90
2022/03/17 05:33:07;;;;;;;53.72;28.90;;;3.80;99.90;;;;;;4971260;28;20043;-88
2022/03/17 05:35:33;;;;;;;56.40;31.10;;;3.70;99.90;;;;;;4969946;28;20034;-89
2022/03/17 05:38:00;;;;;;;48.58;27.20;;;3.80;99.90;;;;;;4969599;28;20027;-89
2022/03/17 05:40:26;;;;;;;52.75;28.92;;;3.80;99.90;;;;;;4975382;28;20053;-88
2022/03/17 05:42:55;;;;;;;53.97;28.02;;;3.90;99.90;;;;;;4970674;28;20109;-89
2022/03/17 05:45:22;;;;;;;53.97;29.55;;;4.00;99.90;;;;;;4971136;28;20491;-89
2022/03/17 05:47:51;;;;;;;55.33;30.50;;;4.00;99.90;;;;;;4969382;28;20041;-89
2022/03/17 05:50:20;;;;;;;62.75;29.67;;;4.00;99.90;;;;;;4967599;28;20035;-89
2022/03/17 05:52:46;;;;;;;58.30;30.05;;;3.90;99.90;;;;;;4970001;28;20038;-89
2022/03/17 05:55:14;;;;;;;55.78;28.48;;;3.70;99.90;;;;;;4968405;28;20125;-88
2022/03/17 05:57:42;;;;;;;51.33;29.83;;;3.70;99.90;;;;;;4985692;28;20184;-88
2022/03/17 06:00:11;;;;;;;53.28;31.70;;;3.80;99.90;;;;;;4967956;28;20058;-91
2022/03/17 06:02:37;;;;;;;53.90;28.60;;;3.90;99.90;;;;;;4964834;28;20031;-91
2022/03/17 06:05:04;;;;;;;50.25;27.90;;;4.00;99.90;;;;;;4959935;28;20550;-88
2022/03/17 06:07:47;;;;;;;52.55;27.52;;;4.00;99.90;;;;;;4969455;28;20046;-90
2022/03/17 06:10:22;;;;;;;57.22;30.77;;;4.10;99.90;;;;;;4970012;28;20469;-90
2022/03/17 06:12:50;;;;;;;51.90;30.98;;;4.10;99.90;;;;;;4970909;28;20042;-89
2022/03/17 06:15:15;;;;;;;50.13;28.17;;;3.90;99.90;;;;;;4970186;28;20462;-89
2022/03/17 06:17:57;;;;;;;53.83;30.85;;;3.90;99.90;;;;;;4969770;28;20058;-89
2022/03/17 06:20:26;;;;;;;53.45;27.38;;;3.90;99.90;;;;;;4969812;28;20034;-89
2022/03/17 06:22:53;;;;;;;54.63;29.73;;;4.10;99.90;;;;;;4970617;28;20105;-88
2022/03/17 06:25:22;;;;;;;51.90;26.95;;;4.10;99.90;;;;;;4959782;28;20434;-88
2022/03/17 06:27:48;;;;;;;52.58;29.85;;;4.20;99.90;;;;;;4970071;28;20121;-88
2022/03/17 06:30:22;;;;;;;57.75;32.50;;;4.30;99.90;;;;;;4969605;28;20063;-88
2022/03/17 06:32:50;;;;;;;63.05;32.08;;;4.10;99.90;;;;;;4970397;28;20069;-88
2022/03/17 06:35:23;;;;;;;56.88;31.77;;;4.00;99.90;;;;;;4969212;28;20085;-88
2022/03/17 06:37:51;;;;;;;56.42;31.30;;;3.90;99.90;;;;;;4982575;28;20110;-89
2022/03/17 06:40:17;;;;;;;58.03;31.02;;;3.90;99.90;;;;;;4967552;28;20023;-87
2022/03/17 06:42:44;;;;;;;56.30;32.17;;;3.90;99.90;;;;;;4970389;28;20034;-90
2022/03/17 06:45:11;;;;;;;56.72;31.40;;;3.90;99.90;;;;;;4936187;28;20397;-89
2022/03/17 06:47:38;;;;;;;52.40;29.40;;;4.00;99.90;;;;;;4970704;28;20027;-88
2022/03/17 06:50:04;;;;;;;51.90;28.67;;;3.90;99.90;;;;;;4970516;28;20039;-89
2022/03/17 06:52:30;;;;;;;49.67;29.30;;;4.00;99.90;;;;;;4968316;28;20034;-89
2022/03/17 06:54:56;;;;;;;55.72;30.67;;;4.00;99.90;;;;;;4969867;28;20097;-88
2022/03/17 06:57:22;;;;;;;58.15;30.05;;;4.00;99.90;;;;;;4967555;28;20033;-88
2022/03/17 06:59:49;;;;;;;53.42;28.60;;;4.00;99.90;;;;;;4962180;28;20913;-88
2022/03/17 07:02:15;;;;;;;52.15;29.38;;;4.00;99.90;;;;;;4968492;28;20550;-88
2022/03/17 07:04:42;;;;;;;51.45;28.25;;;4.10;99.90;;;;;;4969485;28;20065;-89
2022/03/17 07:07:08;;;;;;;54.70;31.00;;;4.10;99.90;;;;;;4972690;28;20039;-90
2022/03/17 07:09:34;;;;;;;56.65;27.95;;;4.20;99.90;;;;;;4972894;28;20081;-87
2022/03/17 07:12:00;;;;;;;52.35;27.30;;;4.30;99.90;;;;;;4968795;28;20673;-89
2022/03/17 07:14:26;;;;;;;54.05;29.10;;;4.20;99.90;;;;;;4969404;28;20030;-89
2022/03/17 07:16:51;;;;;;;53.47;32.38;;;4.40;99.90;;;;;;4971488;28;20026;-88
2022/03/17 07:19:17;;;;;;;54.10;29.02;;;4.50;99.90;;;;;;4975193;28;20502;-87
2022/03/17 07:21:43;;;;;;;57.38;28.25;;;4.60;99.90;;;;;;4971110;28;20098;-89
2022/03/17 07:24:09;;;;;;;49.78;28.40;;;4.70;99.90;;;;;;4973584;28;20718;-89
2022/03/17 07:26:35;;;;;;;55.40;28.95;;;4.70;99.90;;;;;;4973874;28;20034;-88
2022/03/17 07:29:02;;;;;;;55.15;29.63;;;4.70;99.90;;;;;;4973318;28;20030;-88
2022/03/17 07:31:28;;;;;;;54.42;27.63;;;4.60;99.90;;;;;;4972024;28;20513;-88
2022/03/17 07:33:54;;;;;;;51.13;27.70;;;4.70;99.90;;;;;;4969621;28;20030;-89
2022/03/17 07:36:21;;;;;;;54.42;27.35;;;4.80;99.90;;;;;;4972843;28;20450;-88
2022/03/17 07:38:47;;;;;;;57.80;31.17;;;4.90;99.90;;;;;;4991442;28;20095;-87
2022/03/17 07:41:13;;;;;;;55.13;30.83;;;5.00;99.90;;;;;;4973280;28;20030;-90
2022/03/17 07:43:41;;;;;;;46.22;28.15;;;5.00;99.90;;;;;;4972526;28;20109;-89
2022/03/17 07:46:07;;;;;;;63.70;30.17;;;5.10;99.90;;;;;;4971862;28;20510;-88
2022/03/17 07:48:33;;;;;;;53.88;29.35;;;5.00;99.90;;;;;;4962875;28;20023;-89
2022/03/17 07:50:58;;;;;;;54.60;30.55;;;5.00;99.90;;;;;;4971581;28;20431;-90
2022/03/17 07:53:24;;;;;;;48.83;29.45;;;4.90;99.90;;;;;;4956318;28;20462;-86
2022/03/17 07:55:54;;;;;;;50.90;29.85;;;5.00;99.90;;;;;;4968772;28;20031;-87
2022/03/17 07:58:24;;;;;;;53.03;29.00;;;5.10;99.90;;;;;;4970187;28;20117;-88
2022/03/17 08:00:52;;;;;;;52.37;29.93;;;5.20;99.90;;;;;;4971702;28;20399;-88
2022/03/17 08:03:19;;;;;;;46.85;28.05;;;5.50;99.90;;;;;;4972889;28;20566;-88
2022/03/17 08:05:48;;;;;;;52.33;29.73;;;5.40;99.90;;;;;;4971482;28;20061;-90
2022/03/17 08:08:15;;;;;;;49.22;27.90;;;5.50;99.90;;;;;;4972960;28;20111;-89
2022/03/17 08:10:41;;;;;;;52.13;28.17;;;5.50;99.90;;;;;;4971995;28;20077;-88
2022/03/17 08:13:09;;;;;;;69.75;28.52;;;5.50;99.90;;;;;;4973100;28;20022;-89
2022/03/17 08:15:36;;;;;;;52.35;28.92;;;5.50;99.90;;;;;;4963704;28;20038;-89
2022/03/17 08:18:03;;;;;;;54.95;30.80;;;5.40;99.90;;;;;;4964916;28;20027;-89
2022/03/17 08:20:28;;;;;;;52.83;30.10;;;5.40;99.90;;;;;;4970675;28;20031;-88
2022/03/17 08:22:55;;;;;;;54.92;29.60;;;5.50;99.90;;;;;;4982032;28;20038;-87
2022/03/17 08:25:20;;;;;;;51.17;29.35;;;5.60;99.90;;;;;;4969046;28;20031;-86
2022/03/17 08:27:46;;;;;;;48.90;26.95;;;5.90;99.90;;;;;;4975028;28;20490;-88
2022/03/17 08:30:12;;;;;;;52.58;27.83;;;6.10;99.90;;;;;;4970886;28;20038;-86
2022/03/17 08:32:40;;;;;;;56.28;32.03;;;5.90;99.90;;;;;;4971036;28;20050;-86
2022/03/17 08:35:07;;;;;;;47.90;27.60;;;6.00;99.90;;;;;;4970526;28;20031;-86
2022/03/17 08:37:41;;;;;;;55.47;27.98;;;6.20;99.90;;;;;;4971289;28;20046;-88
2022/03/17 08:40:08;;;;;;;51.58;30.13;;;6.10;99.90;;;;;;4982386;28;20090;-88
2022/03/17 08:42:34;;;;;;;54.25;30.95;;;6.10;99.90;;;;;;4970479;28;20110;-87
2022/03/17 08:45:00;;;;;;;47.50;28.13;;;6.10;99.90;;;;;;4983994;28;20502;-87
2022/03/17 08:50:10;;;;;;;50.13;27.90;;;6.30;99.90;;;;;;4969559;28;20065;-88
2022/03/17 08:52:35;;;;;;;56.78;29.50;;;6.60;99.90;;;;;;4954798;28;20054;-88
2022/03/17 08:55:02;;;;;;;50.92;29.10;;;6.60;99.90;;;;;;4970979;28;20433;-88
2022/03/17 08:57:28;;;;;;;46.83;28.25;;;6.80;99.90;;;;;;4966231;28;20027;-87
2022/03/17 08:59:54;;;;;;;49.03;25.33;;;6.70;99.90;;;;;;4968252;28;20711;-88
2022/03/17 09:02:19;;;;;;;51.45;27.95;;;6.50;99.90;;;;;;4971380;28;20398;-87
2022/03/17 09:04:45;;;;;;;49.35;26.77;;;6.60;99.90;;;;;;4969603;28;20047;-87
2022/03/17 09:07:11;;;;;;;53.20;29.23;;;6.50;99.90;;;;;;4964423;28;20042;-87
2022/03/17 09:09:41;;;;;;;50.55;28.42;;;6.80;99.90;;;;;;4981435;28;20498;-87
2022/03/17 09:12:08;;;;;;;51.03;26.92;;;6.90;99.90;;;;;;4965618;28;20074;-87
2022/03/17 09:14:36;;;;;;;44.95;25.88;;;7.10;99.90;;;;;;4970265;28;20034;-87
2022/03/17 09:17:02;;;;;;;51.88;29.95;;;7.00;99.90;;;;;;4968615;28;20158;-85
2022/03/17 09:19:28;;;;;;;50.65;29.67;;;7.00;99.90;;;;;;4964777;28;20433;-86
2022/03/17 09:21:53;;;;;;;49.40;27.55;;;7.30;99.90;;;;;;4967787;28;20023;-89
2022/03/17 09:24:19;;;;;;;51.75;27.75;;;7.50;99.60;;;;;;4968973;28;20647;-88
2022/03/17 09:26:45;;;;;;;44.63;27.58;;;7.50;98.00;;;;;;4966196;28;20066;-87
2022/03/17 09:29:11;;;;;;;48.90;27.65;;;7.50;98.40;;;;;;4952290;28;20452;-86
2022/03/17 09:31:37;;;;;;;48.95;27.60;;;7.60;98.80;;;;;;4969970;28;20111;-87
2022/03/17 09:34:04;;;;;;;45.17;26.40;;;7.90;95.80;;;;;;4968424;28;20031;-88
2022/03/17 09:36:30;;;;;;;44.83;28.77;;;8.10;95.80;;;;;;4970301;28;20034;-84
2022/03/17 09:41:42;;;;;;;49.55;26.65;;;8.70;93.60;;;;;;4967859;28;20030;-86
2022/03/17 09:44:07;;;;;;;48.85;28.20;;;8.30;94.80;;;;;;4968463;28;20031;-86
2022/03/17 09:46:34;;;;;;;46.97;26.33;;;8.40;95.50;;;;;;4969540;28;20045;-85
2022/03/17 09:49:02;;;;;;;44.95;27.58;;;8.60;94.60;;;;;;4969072;28;20053;-85
2022/03/17 09:51:28;;;;;;;42.78;25.92;;;8.70;93.40;;;;;;4966199;28;20474;-84
2022/03/17 09:53:59;;;;;;;44.13;25.50;;;9.10;93.00;;;;;;4950760;28;20376;-85
2022/03/17 09:56:26;;;;;;;46.80;27.00;;;9.30;93.00;;;;;;4964845;28;20253;-85
2022/03/17 09:58:58;;;;;;;50.33;27.75;;;9.50;92.60;;;;;;4968911;28;20027;-84
2022/03/17 10:01:28;;;;;;;46.25;26.70;;;9.50;90.80;;;;;;4968938;28;20113;-85
2022/03/17 10:04:01;;;;;;;48.22;28.70;;;9.60;91.00;;;;;;4967446;28;20475;-84
2022/03/17 10:06:28;;;;;;;44.30;26.80;;;9.60;90.20;;;;;;4969449;28;20035;-85
2022/03/17 10:08:55;;;;;;;48.53;26.35;;;9.20;90.30;;;;;;4969746;28;20043;-86
2022/03/17 10:11:37;;;;;;;46.38;27.90;;;9.00;91.50;;;;;;4969085;28;20028;-84
2022/03/17 10:14:05;;;;;;;47.75;27.30;;;9.40;91.20;;;;;;4969524;28;20145;-86
2022/03/17 10:16:31;;;;;;;48.97;28.25;;;9.40;90.70;;;;;;4965530;28;20027;-86
2022/03/17 10:18:57;;;;;;;46.38;27.90;;;9.40;90.90;;;;;;4964424;28;20640;-85
2022/03/17 10:21:27;;;;;;;45.88;28.55;;;9.30;91.50;;;;;;4968829;28;20122;-85
2022/03/17 10:23:56;;;;;;;46.58;26.77;;;9.40;91.60;;;;;;4968652;28;20061;-86
2022/03/17 10:27:03;;;;;;;47.85;28.30;;;9.50;90.20;;;;;;4968715;28;20030;-85
2022/03/17 10:29:28;;;;;;;45.45;26.80;;;9.10;92.50;;;;;;4965192;28;20049;-86
2022/03/17 10:32:04;;;;;;;47.42;26.95;;;8.80;92.00;;;;;;4983417;28;20042;-84
2022/03/17 10:34:51;;;;;;;44.72;27.30;;;8.90;92.20;;;;;;4969478;28;20463;-84
2022/03/17 10:37:19;;;;;;;42.35;26.17;;;8.90;92.40;;;;;;4959987;28;20023;-85
2022/03/17 10:39:51;;;;;;;46.35;26.98;;;9.20;92.00;;;;;;4969452;28;20033;-84
2022/03/17 10:42:19;;;;;;;46.08;27.52;;;9.20;92.10;;;;;;4971738;28;20039;-84
2022/03/17 10:44:48;;;;;;;47.72;28.77;;;9.30;92.60;;;;;;4972433;28;20082;-84
2022/03/17 10:47:21;;;;;;;42.30;25.97;;;9.30;92.70;;;;;;4965220;28;20483;-85
2022/03/17 10:50:23;;;;;;;46.58;26.73;;;9.30;92.20;;;;;;4973658;28;20725;-85
2022/03/17 10:52:56;;;;;;;47.03;26.48;;;9.00;91.70;;;;;;4950949;29;20166;-86
2022/03/17 10:55:30;;;;;;;46.20;28.05;;;8.70;92.50;;;;;;4965069;28;20038;-86
2022/03/17 10:58:13;;;;;;;47.60;27.35;;;8.90;92.30;;;;;;4971975;28;20030;-85
2022/03/17 11:00:55;;;;;;;47.58;26.73;;;9.00;93.20;;;;;;4970252;28;20035;-86
2022/03/17 11:03:21;;;;;;;52.03;26.75;;;8.90;93.40;;;;;;4971295;28;20073;-86
2022/03/17 11:05:50;;;;;;;44.53;26.25;;;9.10;92.40;;;;;;4969629;28;20041;-86
2022/03/17 11:08:20;;;;;;;44.65;27.25;;;9.40;92.60;;;;;;4972331;28;20047;-85
2022/03/17 11:10:45;;;;;;;44.33;25.60;;;9.20;92.70;;;;;;4973012;28;20027;-83
2022/03/17 11:13:11;;;;;;;42.72;26.55;;;8.80;93.40;;;;;;4973072;28;20041;-84
2022/03/17 11:15:46;;;;;;;43.05;27.05;;;8.70;92.80;;;;;;4969264;28;20387;-84
2022/03/17 11:18:18;;;;;;;46.70;26.95;;;8.80;93.10;;;;;;4972548;28;20058;-84
2022/03/17 11:20:44;;;;;;;42.67;26.65;;;9.20;92.60;;;;;;4973103;28;20453;-84
2022/03/17 11:23:23;;;;;;;47.90;27.00;;;9.40;92.00;;;;;;4968217;28;20090;-86
2022/03/17 11:25:53;;;;;;;42.47;25.92;;;9.30;91.30;;;;;;4971796;28;20038;-85
2022/03/17 11:28:32;;;;;;;42.58;25.25;;;9.30;91.80;;;;;;4972808;28;20115;-85
2022/03/17 11:31:05;;;;;;;46.45;28.65;;;9.40;92.30;;;;;;4970434;28;20027;-85
2022/03/17 11:33:43;;;;;;;42.15;26.08;;;9.60;91.00;;;;;;4967636;28;20771;-85
2022/03/17 11:36:09;;;;;;;46.25;26.13;;;9.50;90.80;;;;;;4964880;28;20065;-85
2022/03/17 11:38:39;;;;;;;46.92;25.95;;;9.60;90.50;;;;;;4975134;28;20046;-85
2022/03/17 11:41:06;;;;;;;40.05;25.45;;;10.00;90.60;;;;;;4971644;28;20042;-84
2022/03/17 11:43:51;;;;;;;40.75;25.65;;;10.10;88.10;;;;;;4972198;28;20026;-84
2022/03/17 11:46:34;;;;;;;40.97;24.17;;;10.50;87.80;;;;;;4965636;28;20130;-84
2022/03/17 11:49:38;;;;;;;42.17;25.17;;;10.90;84.40;;;;;;4970978;28;20031;-85
2022/03/17 11:52:08;;;;;;;43.67;26.95;;;11.00;82.50;;;;;;4957894;28;20046;-84
2022/03/17 11:54:34;;;;;;;39.15;24.25;;;10.90;81.70;;;;;;4970611;28;20049;-84
2022/03/17 11:57:05;;;;;;;44.22;26.55;;;10.80;81.60;;;;;;4971912;28;20046;-84
2022/03/17 11:59:51;;;;;;;41.85;24.60;;;10.90;81.50;;;;;;4970500;28;20102;-83
2022/03/17 12:02:17;;;;;;;47.80;28.52;;;11.20;80.80;;;;;;4961440;28;20047;-83
2022/03/17 12:04:48;;;;;;;45.22;27.90;;;11.50;78.60;;;;;;4971430;28;20054;-83
2022/03/17 12:07:14;;;;;;;;;;;11.50;78.90;;;;;;4967265;28;20050;-82
2022/03/17 12:09:40;;;;;;;43.17;24.73;;;11.50;76.10;;;;;;4971719;28;20013;-83
2022/03/17 12:12:20;;;;;;;42.17;25.50;;;11.60;79.00;;;;;;4968798;28;20054;-83
2022/03/17 12:14:54;;;;;;;39.60;23.70;;;12.00;79.60;;;;;;4971297;28;20054;-83
2022/03/17 12:17:25;;;;;;;42.47;25.33;;;11.70;76.30;;;;;;4969958;28;20080;-83
2022/03/17 12:20:11;;;;;;;44.83;25.85;;;12.00;76.60;;;;;;4970517;28;20043;-83
2022/03/17 12:22:43;;;;;;;41.97;24.52;;;11.70;75.00;;;;;;4969607;28;20434;-84
2022/03/17 12:25:20;;;;;;;44.67;26.52;;;12.20;74.50;;;;;;4967521;28;20057;-83
2022/03/17 12:28:05;;;;;;;41.17;25.13;;;11.70;73.60;;;;;;4965913;28;20038;-83
2022/03/17 12:30:33;;;;;;;42.63;24.80;;;11.80;73.20;;;;;;4950794;28;20896;-83
2022/03/17 12:33:01;;;;;;;41.05;24.52;;;11.80;73.60;;;;;;4970697;28;20089;-83
2022/03/17 12:35:32;;;;;;;39.53;25.98;;;12.10;73.90;;;;;;4970339;28;20023;-83
2022/03/17 12:38:09;;;;;;;39.60;24.23;;;11.60;74.70;;;;;;4967400;28;20027;-83
2022/03/17 12:40:42;;;;;;;40.50;26.50;;;12.20;73.00;;;;;;4969150;28;20397;-83
2022/03/17 12:43:17;;;;;;;44.70;26.02;;;12.60;70.80;;;;;;4968780;28;20039;-82
2022/03/17 12:45:48;;;;;;;44.40;26.45;;;12.60;72.50;;;;;;4969155;28;20026;-83
2022/03/17 12:48:16;;;;;;;41.90;25.90;;;12.30;70.10;;;;;;4960897;28;20058;-83
2022/03/17 12:50:42;;;;;;;38.13;25.30;;;12.30;71.10;;;;;;4968554;28;20054;-83
2022/03/17 12:53:09;;;;;;;38.45;23.50;;;12.10;70.30;;;;;;4952155;28;20127;-83
2022/03/17 12:55:35;;;;;;;41.92;26.30;;;12.40;70.90;;;;;;4968616;28;20019;-83